Time;durP1;ratioP1;P1;durP2;ratioP2;P2;SDS_P1;SDS_P2;PMS_P1;PMS_P2;Temp;Humidity;BMP_temperature;BMP_pressure;BME280_temperature;BME280_humidity;BME280_pressure;Samples;Min_cycle;Max_cycle;Signal;HPM_P1;HPM_P2
2022/01/01 00:01:18;;;;;;;54.05;37.05;;;13.30;99.90;;;;;;5047915;28;20032;-43
2022/01/01 00:03:46;;;;;;;49.25;32.85;;;13.30;99.90;;;;;;5046458;28;20043;-43
2022/01/01 00:06:11;;;;;;;44.70;32.35;;;13.30;99.90;;;;;;5047535;28;20044;-44
2022/01/01 00:08:37;;;;;;;52.28;33.53;;;13.40;99.90;;;;;;5047426;28;20036;-44
2022/01/01 00:11:02;;;;;;;40.85;27.83;;;13.30;99.90;;;;;;5046000;28;20025;-43
2022/01/01 00:13:28;;;;;;;44.33;30.52;;;13.40;99.90;;;;;;5047536;28;20025;-43
2022/01/01 00:15:53;;;;;;;53.95;37.00;;;13.40;99.90;;;;;;5047431;28;20025;-43
2022/01/01 00:18:19;;;;;;;55.20;37.70;;;13.40;99.90;;;;;;5047329;28;20028;-43
2022/01/01 00:20:44;;;;;;;54.28;37.92;;;13.40;99.90;;;;;;5046626;28;20082;-43
2022/01/01 00:23:10;;;;;;;55.17;39.17;;;13.40;99.90;;;;;;5047573;28;20060;-44
2022/01/01 00:25:35;;;;;;;55.83;38.83;;;13.40;99.90;;;;;;5046331;28;20567;-42
2022/01/01 00:28:01;;;;;;;52.80;37.30;;;13.40;99.90;;;;;;5047285;28;20017;-44
2022/01/01 00:30:26;;;;;;;56.42;36.72;;;13.40;99.90;;;;;;5046571;28;20485;-44
2022/01/01 00:32:52;;;;;;;52.15;33.83;;;13.40;99.90;;;;;;5047072;28;20032;-44
2022/01/01 00:35:17;;;;;;;45.20;30.52;;;13.40;99.90;;;;;;5046884;28;20028;-43
2022/01/01 00:37:43;;;;;;;43.95;28.13;;;13.40;99.90;;;;;;5046738;28;20025;-44
2022/01/01 00:40:09;;;;;;;41.38;28.13;;;13.40;99.90;;;;;;5046763;28;20053;-44
2022/01/01 00:42:34;;;;;;;43.47;27.67;;;13.40;99.90;;;;;;5047458;28;20009;-43
2022/01/01 00:45:00;;;;;;;40.90;26.73;;;13.40;99.90;;;;;;5050310;28;20059;-44
2022/01/01 00:47:25;;;;;;;38.47;24.48;;;13.40;99.90;;;;;;5050676;28;20013;-44
2022/01/01 00:49:51;;;;;;;46.05;24.65;;;13.40;99.90;;;;;;5050799;28;20052;-43
2022/01/01 00:52:17;;;;;;;41.03;24.92;;;13.40;99.90;;;;;;5050617;28;20028;-43
2022/01/01 00:54:42;;;;;;;47.42;28.77;;;13.40;99.90;;;;;;5050755;28;20481;-44
2022/01/01 00:57:08;;;;;;;48.58;30.73;;;13.40;99.90;;;;;;5050477;28;20035;-44
2022/01/01 00:59:33;;;;;;;51.08;33.22;;;13.40;99.90;;;;;;5050407;28;20025;-44
2022/01/01 01:01:59;;;;;;;50.45;32.35;;;13.40;99.90;;;;;;5050576;28;20028;-43
2022/01/01 01:04:26;;;;;;;48.30;32.60;;;13.40;99.90;;;;;;5050761;28;20036;-43
2022/01/01 01:06:51;;;;;;;51.10;31.88;;;13.40;99.90;;;;;;5049502;28;20449;-42
2022/01/01 01:09:17;;;;;;;46.78;32.15;;;13.40;99.90;;;;;;5050736;28;20031;-44
2022/01/01 01:11:46;;;;;;;48.75;32.65;;;13.40;99.90;;;;;;5050462;28;20494;-44
2022/01/01 01:14:19;;;;;;;48.78;33.90;;;13.40;99.90;;;;;;5050417;28;20031;-43
2022/01/01 01:16:46;;;;;;;48.78;33.90;;;13.40;99.90;;;;;;5050185;28;20056;-44
2022/01/01 01:19:12;;;;;;;50.53;33.90;;;13.40;99.90;;;;;;5050946;28;20053;-44
2022/01/01 01:21:37;;;;;;;51.40;32.35;;;13.40;99.90;;;;;;5049058;28;20041;-43
2022/01/01 01:24:03;;;;;;;49.25;32.50;;;13.40;99.90;;;;;;5050213;28;20098;-43
2022/01/01 01:26:29;;;;;;;46.03;31.30;;;13.40;99.90;;;;;;5050481;28;20053;-44
2022/01/01 01:28:56;;;;;;;49.78;33.22;;;13.40;99.90;;;;;;5049309;28;20311;-43
2022/01/01 01:31:24;;;;;;;54.88;32.53;;;13.30;99.90;;;;;;5050321;28;20031;-44
2022/01/01 01:33:50;;;;;;;47.17;32.97;;;13.30;99.90;;;;;;5048811;28;20013;-43
2022/01/01 01:36:19;;;;;;;55.58;33.85;;;13.30;99.90;;;;;;5050621;28;20424;-44
2022/01/01 01:38:44;;;;;;;53.58;34.40;;;13.30;99.90;;;;;;5049639;28;20106;-45
2022/01/01 01:41:10;;;;;;;47.20;33.45;;;13.30;99.90;;;;;;5049431;28;20473;-44
2022/01/01 01:43:36;;;;;;;64.35;39.40;;;13.30;99.90;;;;;;5049797;28;20052;-43
2022/01/01 01:46:07;;;;;;;49.45;33.72;;;13.30;99.90;;;;;;5049288;28;20037;-44
2022/01/01 01:48:34;;;;;;;48.75;32.47;;;13.30;99.90;;;;;;5048671;28;20017;-43
2022/01/01 01:51:00;;;;;;;48.58;32.95;;;13.30;99.90;;;;;;5049716;28;20075;-44
2022/01/01 01:53:26;;;;;;;51.95;34.42;;;13.30;99.90;;;;;;5049218;28;20052;-43
2022/01/01 01:55:53;;;;;;;53.03;32.70;;;13.30;99.90;;;;;;5049088;28;20063;-44
2022/01/01 01:58:18;;;;;;;49.15;32.83;;;13.30;99.90;;;;;;5049463;28;20755;-43
2022/01/01 02:03:28;;;;;;;47.72;32.28;;;13.30;99.90;;;;;;5048680;28;20035;-43
2022/01/01 02:05:55;;;;;;;46.15;31.45;;;13.30;99.90;;;;;;5049421;28;20028;-43
2022/01/01 02:08:21;;;;;;;48.45;31.67;;;13.30;99.90;;;;;;5049575;28;20532;-43
2022/01/01 02:10:51;;;;;;;50.78;31.08;;;13.30;99.90;;;;;;5048387;28;20021;-43
2022/01/01 02:13:26;;;;;;;47.85;29.55;;;13.20;99.90;;;;;;5049611;28;20092;-45
2022/01/01 02:18:19;;;;;;;47.38;27.73;;;13.20;99.90;;;;;;5049222;28;20075;-44
2022/01/01 02:20:49;;;;;;;39.63;24.60;;;13.20;99.90;;;;;;5049120;28;20025;-44
2022/01/01 02:23:27;;;;;;;41.75;25.50;;;13.20;99.90;;;;;;5048716;28;20031;-42
2022/01/01 02:25:56;;;;;;;40.15;25.13;;;13.30;99.90;;;;;;5046501;28;20694;-44
2022/01/01 02:28:22;;;;;;;42.13;24.25;;;13.30;99.90;;;;;;5049571;28;20021;-43
2022/01/01 02:30:49;;;;;;;41.90;24.45;;;13.30;99.90;;;;;;5048021;28;20037;-42
2022/01/01 02:33:18;;;;;;;35.47;23.00;;;13.30;99.90;;;;;;5049403;28;20099;-43
2022/01/01 02:35:44;;;;;;;31.67;20.70;;;13.30;99.90;;;;;;5048845;28;20459;-43
2022/01/01 02:38:10;;;;;;;33.85;21.15;;;13.30;99.90;;;;;;5048494;28;20109;-43
2022/01/01 02:40:36;;;;;;;39.08;23.60;;;13.30;99.90;;;;;;5049415;28;20480;-44
2022/01/01 02:43:01;;;;;;;40.65;23.08;;;13.30;99.90;;;;;;5049350;28;20094;-43
2022/01/01 02:45:29;;;;;;;36.50;22.08;;;13.30;99.90;;;;;;5047829;28;20069;-43
2022/01/01 02:47:54;;;;;;;40.33;22.73;;;13.30;99.90;;;;;;5048919;28;20029;-43
2022/01/01 02:50:20;;;;;;;40.35;25.48;;;13.30;99.90;;;;;;5048283;28;20049;-44
2022/01/01 02:52:47;;;;;;;46.50;25.52;;;13.30;99.90;;;;;;5047593;28;20113;-43
2022/01/01 02:55:13;;;;;;;36.88;23.50;;;13.30;99.90;;;;;;5048968;28;20092;-44
2022/01/01 02:57:38;;;;;;;46.40;25.40;;;13.30;99.90;;;;;;5048153;28;20460;-43
2022/01/01 03:00:05;;;;;;;39.47;23.25;;;13.30;99.90;;;;;;5047296;28;20029;-43
2022/01/01 03:02:30;;;;;;;40.25;23.08;;;13.30;99.90;;;;;;5048467;28;20017;-42
2022/01/01 03:04:56;;;;;;;33.85;22.95;;;13.30;99.90;;;;;;5047821;28;20495;-43
2022/01/01 03:07:22;;;;;;;35.75;21.77;;;13.30;99.90;;;;;;5047611;28;20019;-43
2022/01/01 03:09:47;;;;;;;30.60;19.15;;;13.30;99.90;;;;;;5047790;28;20033;-44
2022/01/01 03:12:14;;;;;;;35.50;19.77;;;13.30;99.90;;;;;;5047746;28;20450;-44
2022/01/01 03:14:40;;;;;;;28.63;18.10;;;13.40;99.90;;;;;;5048913;28;20036;-43
2022/01/01 03:17:07;;;;;;;24.55;15.32;;;13.40;99.90;;;;;;5048054;28;20024;-44
2022/01/01 03:19:33;;;;;;;25.88;16.65;;;13.40;99.90;;;;;;5047408;28;20602;-43
2022/01/01 03:21:59;;;;;;;24.58;17.15;;;13.40;99.90;;;;;;5047551;28;20770;-43
2022/01/01 03:24:25;;;;;;;35.03;19.88;;;13.40;99.90;;;;;;5048471;28;20021;-44
2022/01/01 03:26:51;;;;;;;29.90;18.55;;;13.40;99.90;;;;;;5047227;28;20021;-43
2022/01/01 03:29:16;;;;;;;32.38;20.10;;;13.40;99.90;;;;;;5048145;28;20033;-43
2022/01/01 03:31:42;;;;;;;30.55;17.40;;;13.40;99.90;;;;;;5048039;28;20021;-44
2022/01/01 03:34:07;;;;;;;29.98;17.63;;;13.40;99.90;;;;;;5046844;28;20044;-43
2022/01/01 03:36:33;;;;;;;35.53;20.30;;;13.40;99.90;;;;;;5047529;28;20025;-43
2022/01/01 03:38:59;;;;;;;30.92;16.98;;;13.40;99.90;;;;;;5047874;28;20017;-43
2022/01/01 03:41:26;;;;;;;28.17;19.05;;;13.40;99.90;;;;;;5047186;28;20021;-43
2022/01/01 03:43:51;;;;;;;27.50;17.20;;;13.40;99.90;;;;;;5047655;28;20505;-43
2022/01/01 03:46:17;;;;;;;30.35;19.05;;;13.40;99.90;;;;;;5047707;28;20041;-44
2022/01/01 03:48:42;;;;;;;29.83;20.35;;;13.30;99.90;;;;;;5046769;28;20083;-43
2022/01/01 03:51:08;;;;;;;31.65;19.63;;;13.40;99.90;;;;;;5047984;28;20140;-43
2022/01/01 03:53:33;;;;;;;29.50;19.13;;;13.40;99.90;;;;;;5047504;28;20021;-43
2022/01/01 03:55:59;;;;;;;35.22;20.25;;;13.40;99.90;;;;;;5047291;28;20112;-43
2022/01/01 03:58:25;;;;;;;28.88;19.77;;;13.40;99.90;;;;;;5047602;28;20029;-43
2022/01/01 04:00:51;;;;;;;29.15;19.15;;;13.40;99.90;;;;;;5047796;28;20147;-43
2022/01/01 04:03:17;;;;;;;32.08;19.95;;;13.40;99.90;;;;;;5047075;28;20037;-44
2022/01/01 04:05:44;;;;;;;25.70;17.90;;;13.40;99.90;;;;;;5047803;28;20037;-44
2022/01/01 04:08:11;;;;;;;27.98;19.13;;;13.40;99.90;;;;;;5047112;28;20033;-43
2022/01/01 04:10:37;;;;;;;30.55;18.58;;;13.50;99.90;;;;;;5046452;28;20503;-43
2022/01/01 04:13:04;;;;;;;31.40;20.10;;;13.40;99.90;;;;;;5047601;28;20032;-43
2022/01/01 04:15:31;;;;;;;26.33;19.08;;;13.40;99.90;;;;;;5046978;28;20108;-43
2022/01/01 04:18:01;;;;;;;27.88;19.27;;;13.40;99.90;;;;;;5049753;28;20028;-42
2022/01/01 04:20:27;;;;;;;29.98;19.23;;;13.40;99.90;;;;;;5052054;28;20082;-43
2022/01/01 04:22:54;;;;;;;28.40;19.08;;;13.40;99.90;;;;;;5050166;28;20116;-44
2022/01/01 04:25:20;;;;;;;33.85;20.80;;;13.40;99.90;;;;;;5051483;28;20033;-44
2022/01/01 04:27:50;;;;;;;28.40;19.33;;;13.40;99.90;;;;;;5051270;28;20021;-43
2022/01/01 04:30:15;;;;;;;29.38;20.38;;;13.40;99.90;;;;;;5050705;28;20044;-44
2022/01/01 04:32:41;;;;;;;30.85;19.65;;;13.40;99.90;;;;;;5051158;28;20461;-44
2022/01/01 04:35:07;;;;;;;29.75;19.73;;;13.40;99.90;;;;;;5051261;28;20105;-45
2022/01/01 04:37:33;;;;;;;28.05;18.13;;;13.40;99.90;;;;;;5050146;28;20100;-44
2022/01/01 04:39:59;;;;;;;30.20;18.60;;;13.50;99.90;;;;;;5051008;28;20025;-43
2022/01/01 04:42:26;;;;;;;28.98;16.67;;;13.50;99.90;;;;;;5051675;28;20044;-43
2022/01/01 04:44:52;;;;;;;22.83;15.35;;;13.50;99.90;;;;;;5049955;28;20039;-44
2022/01/01 04:47:18;;;;;;;24.60;15.40;;;13.40;99.90;;;;;;5050992;28;20048;-43
2022/01/01 04:49:43;;;;;;;21.00;13.68;;;13.50;99.90;;;;;;5051193;28;20092;-43
2022/01/01 04:52:09;;;;;;;22.73;14.57;;;13.40;99.90;;;;;;5050219;28;20376;-43
2022/01/01 04:54:39;;;;;;;19.55;13.48;;;13.40;99.90;;;;;;5050736;28;20047;-44
2022/01/01 04:57:05;;;;;;;22.90;12.65;;;13.40;99.90;;;;;;5051144;28;20021;-43
2022/01/01 04:59:30;;;;;;;19.75;12.35;;;13.40;99.90;;;;;;5049446;28;20059;-43
2022/01/01 05:01:56;;;;;;;18.08;12.13;;;13.40;99.90;;;;;;5050529;28;20117;-43
2022/01/01 05:04:21;;;;;;;20.55;12.75;;;13.40;99.90;;;;;;5050817;28;20021;-45
2022/01/01 05:06:49;;;;;;;18.90;12.27;;;13.40;99.90;;;;;;5050002;28;20539;-43
2022/01/01 05:09:16;;;;;;;18.25;11.80;;;13.40;99.90;;;;;;5050883;28;20048;-44
2022/01/01 05:11:42;;;;;;;19.35;11.32;;;13.40;99.90;;;;;;5049660;28;20024;-43
2022/01/01 05:14:08;;;;;;;19.40;11.15;;;13.50;99.90;;;;;;5050677;28;20036;-43
2022/01/01 05:16:33;;;;;;;19.80;11.88;;;13.50;99.90;;;;;;5050523;28;20032;-43
2022/01/01 05:18:59;;;;;;;19.13;10.90;;;13.40;99.90;;;;;;5049663;28;20473;-43
2022/01/01 05:21:24;;;;;;;16.35;11.32;;;13.50;99.90;;;;;;5050463;28;20033;-43
2022/01/01 05:23:50;;;;;;;11.70;8.68;;;13.50;99.90;;;;;;5050209;28;20017;-43
2022/01/01 05:26:16;;;;;;;15.75;9.52;;;13.50;99.90;;;;;;5049465;28;20124;-43
2022/01/01 05:28:43;;;;;;;13.25;8.05;;;13.40;99.90;;;;;;5049763;28;20025;-44
2022/01/01 05:31:08;;;;;;;17.00;8.75;;;13.50;99.90;;;;;;5049584;28;20036;-44
2022/01/01 05:33:34;;;;;;;16.73;8.93;;;13.40;99.90;;;;;;5049971;28;20032;-43
2022/01/01 05:35:59;;;;;;;15.95;9.02;;;13.40;99.90;;;;;;5049467;28;20048;-43
2022/01/01 05:38:25;;;;;;;11.20;7.85;;;13.40;99.90;;;;;;5050225;28;20297;-43
2022/01/01 05:40:50;;;;;;;12.60;7.55;;;13.40;99.90;;;;;;5049778;28;20025;-44
2022/01/01 05:43:16;;;;;;;13.95;7.45;;;13.30;99.90;;;;;;5050072;28;20086;-45
2022/01/01 05:45:42;;;;;;;14.10;7.60;;;13.30;99.90;;;;;;5049460;28;20044;-43
2022/01/01 05:48:11;;;;;;;17.60;8.60;;;13.30;99.90;;;;;;5049349;28;20123;-44
2022/01/01 05:50:37;;;;;;;14.68;9.13;;;13.30;99.90;;;;;;5049197;28;20040;-44
2022/01/01 05:53:02;;;;;;;17.00;8.73;;;13.30;99.90;;;;;;5050108;28;20025;-43
2022/01/01 05:55:28;;;;;;;15.88;7.90;;;13.30;99.90;;;;;;5048913;28;20809;-44
2022/01/01 05:57:53;;;;;;;12.00;7.35;;;13.30;99.90;;;;;;5049310;28;20589;-44
2022/01/01 06:00:19;;;;;;;11.88;6.85;;;13.40;99.90;;;;;;5050255;28;20091;-43
2022/01/01 06:02:44;;;;;;;10.30;6.95;;;13.30;99.90;;;;;;5048581;28;20048;-44
2022/01/01 06:05:11;;;;;;;9.38;6.43;;;13.30;99.90;;;;;;5049752;28;20032;-44
2022/01/01 06:07:37;;;;;;;11.05;6.88;;;13.30;99.90;;;;;;5049298;28;20013;-44
2022/01/01 06:10:04;;;;;;;11.13;6.70;;;13.40;99.90;;;;;;5049148;28;20549;-44
2022/01/01 06:12:29;;;;;;;12.35;7.80;;;13.40;99.90;;;;;;5048821;28;20086;-45
2022/01/01 06:14:55;;;;;;;13.93;8.00;;;13.40;99.90;;;;;;5049618;28;20029;-44
2022/01/01 06:17:20;;;;;;;15.93;7.80;;;13.40;99.90;;;;;;5048535;28;20467;-43
2022/01/01 06:19:48;;;;;;;12.25;7.45;;;13.40;99.90;;;;;;5048926;28;20040;-44
2022/01/01 06:22:14;;;;;;;13.02;7.63;;;13.40;99.90;;;;;;5048644;28;20137;-44
2022/01/01 06:24:39;;;;;;;11.07;7.45;;;13.30;99.90;;;;;;5049157;28;20129;-43
2022/01/01 06:27:05;;;;;;;14.88;8.93;;;13.40;99.90;;;;;;5048686;28;20027;-44
2022/01/01 06:29:31;;;;;;;14.23;8.00;;;13.30;99.90;;;;;;5048813;28;20032;-44
2022/01/01 06:31:57;;;;;;;13.38;7.07;;;13.40;99.90;;;;;;5048890;28;20016;-43
2022/01/01 06:34:22;;;;;;;10.57;6.63;;;13.40;99.90;;;;;;5049032;28;20024;-44
2022/01/01 06:36:51;;;;;;;9.45;6.82;;;13.40;99.90;;;;;;5048436;28;20724;-44
2022/01/01 06:39:17;;;;;;;12.07;6.90;;;13.40;99.90;;;;;;5046064;28;20017;-44
2022/01/01 06:41:42;;;;;;;12.30;8.27;;;13.40;99.90;;;;;;5047826;28;20391;-44
2022/01/01 06:44:08;;;;;;;13.05;7.97;;;13.40;99.90;;;;;;5047876;28;20486;-43
2022/01/01 06:46:33;;;;;;;11.05;7.07;;;13.30;99.90;;;;;;5049111;28;20036;-43
2022/01/01 06:48:59;;;;;;;13.88;7.47;;;13.20;99.90;;;;;;5048091;28;20515;-43
2022/01/01 06:51:24;;;;;;;14.98;7.63;;;13.10;99.90;;;;;;5028135;28;20389;-43
2022/01/01 06:53:50;;;;;;;11.25;7.30;;;13.00;99.90;;;;;;5043257;28;20029;-43
2022/01/01 06:56:15;;;;;;;11.15;7.30;;;12.90;99.90;;;;;;5048681;28;20024;-43
2022/01/01 06:58:41;;;;;;;13.23;7.82;;;12.80;99.90;;;;;;5047605;28;20028;-42
2022/01/01 07:01:06;;;;;;;13.05;7.35;;;12.80;99.90;;;;;;5048922;28;20028;-43
2022/01/01 07:03:32;;;;;;;11.52;7.50;;;12.70;99.90;;;;;;5047968;28;20025;-43
2022/01/01 07:05:57;;;;;;;12.50;7.93;;;12.60;99.90;;;;;;5047795;28;20040;-43
2022/01/01 07:08:23;;;;;;;18.20;9.57;;;12.60;99.90;;;;;;5048670;28;20527;-43
2022/01/01 07:10:48;;;;;;;16.10;10.13;;;12.50;99.90;;;;;;5048036;28;20033;-43
2022/01/01 07:13:15;;;;;;;18.58;11.75;;;12.50;99.90;;;;;;5047673;28;20457;-44
2022/01/01 07:15:42;;;;;;;18.50;11.43;;;12.50;99.90;;;;;;5048385;28;20440;-44
2022/01/01 07:18:07;;;;;;;21.92;12.77;;;12.50;99.90;;;;;;5048277;28;20099;-44
2022/01/01 07:20:33;;;;;;;20.50;13.02;;;12.50;99.90;;;;;;5047241;28;20021;-44
2022/01/01 07:22:58;;;;;;;22.83;13.00;;;12.50;99.90;;;;;;5048519;28;20032;-44
2022/01/01 07:25:24;;;;;;;24.15;12.45;;;12.50;99.90;;;;;;5047295;28;20465;-43
2022/01/01 07:27:50;;;;;;;18.08;11.48;;;12.60;99.90;;;;;;5048170;28;20037;-44
2022/01/01 07:30:15;;;;;;;18.55;11.93;;;12.60;99.90;;;;;;5048103;28;20507;-44
2022/01/01 07:32:43;;;;;;;20.98;12.98;;;12.60;99.90;;;;;;5047477;28;20021;-43
2022/01/01 07:35:10;;;;;;;19.02;12.07;;;12.70;99.90;;;;;;5047646;28;20029;-43
2022/01/01 07:37:36;;;;;;;22.08;11.75;;;12.70;99.90;;;;;;5047910;28;20078;-44
2022/01/01 07:40:03;;;;;;;20.48;11.73;;;12.80;99.90;;;;;;5047004;28;20056;-43
2022/01/01 07:42:29;;;;;;;15.77;10.60;;;12.80;99.90;;;;;;5047544;28;20400;-44
2022/01/01 07:44:54;;;;;;;17.30;10.27;;;12.70;99.90;;;;;;5047608;28;20037;-43
2022/01/01 07:47:20;;;;;;;14.35;9.20;;;12.70;99.90;;;;;;5047466;28;20028;-43
2022/01/01 07:49:45;;;;;;;14.63;8.93;;;12.60;99.90;;;;;;5047056;28;20069;-44
2022/01/01 07:52:11;;;;;;;14.20;7.85;;;12.60;99.90;;;;;;5047229;28;20048;-44
2022/01/01 07:54:36;;;;;;;12.25;6.20;;;12.50;99.90;;;;;;5047199;28;20016;-44
2022/01/01 07:57:03;;;;;;;10.35;6.10;;;12.50;99.90;;;;;;5047582;28;20474;-42
2022/01/01 07:59:28;;;;;;;10.70;5.88;;;12.50;99.90;;;;;;5047692;28;20017;-43
2022/01/01 08:01:56;;;;;;;11.32;6.32;;;12.50;99.90;;;;;;5047388;28;20035;-43
2022/01/01 08:04:22;;;;;;;12.20;6.07;;;12.50;99.90;;;;;;5047688;28;20087;-43
2022/01/01 08:06:47;;;;;;;12.07;6.38;;;12.50;99.90;;;;;;5047200;28;20547;-43
2022/01/01 08:09:14;;;;;;;11.18;5.75;;;12.50;99.90;;;;;;5047536;28;20029;-45
2022/01/01 08:11:40;;;;;;;8.68;5.18;;;12.50;99.90;;;;;;5047072;28;20021;-43
2022/01/01 08:14:05;;;;;;;10.73;5.68;;;12.40;99.90;;;;;;5047537;28;20520;-43
2022/01/01 08:16:31;;;;;;;10.20;5.97;;;12.50;99.90;;;;;;5046508;28;20492;-45
2022/01/01 08:18:57;;;;;;;10.70;5.40;;;12.40;99.90;;;;;;5047872;28;20029;-44
2022/01/01 08:21:22;;;;;;;7.65;4.85;;;12.40;99.90;;;;;;5047286;28;20647;-43
2022/01/01 08:23:48;;;;;;;7.50;4.57;;;12.50;99.90;;;;;;5046853;28;20748;-43
2022/01/01 08:26:14;;;;;;;7.70;4.43;;;12.50;99.90;;;;;;5047580;28;20032;-44
2022/01/01 08:28:39;;;;;;;8.88;4.57;;;12.50;99.90;;;;;;5046637;28;20127;-43
2022/01/01 08:31:06;;;;;;;9.02;4.85;;;12.50;99.90;;;;;;5047657;28;20441;-43
2022/01/01 08:33:31;;;;;;;9.18;4.68;;;12.60;99.90;;;;;;5047054;28;20715;-44
2022/01/01 08:35:57;;;;;;;8.48;4.45;;;12.70;99.90;;;;;;5046701;28;20021;-43
2022/01/01 08:38:22;;;;;;;11.15;4.22;;;12.70;99.90;;;;;;5047569;28;20025;-44
2022/01/01 08:40:48;;;;;;;7.10;4.43;;;12.80;99.90;;;;;;5046915;28;20039;-44
2022/01/01 08:43:13;;;;;;;6.10;3.83;;;12.80;99.90;;;;;;5046540;28;20021;-43
2022/01/01 08:45:39;;;;;;;8.23;4.50;;;12.90;99.90;;;;;;5047435;28;20068;-45
2022/01/01 08:48:08;;;;;;;9.18;4.65;;;12.90;99.90;;;;;;5047168;28;20075;-44
2022/01/01 08:50:34;;;;;;;8.65;4.38;;;13.00;99.90;;;;;;5046139;28;20045;-43
2022/01/01 08:52:59;;;;;;;5.88;4.15;;;13.00;99.90;;;;;;5046789;28;20047;-43
2022/01/01 08:55:25;;;;;;;6.32;3.80;;;13.00;99.90;;;;;;5046910;28;20033;-44
2022/01/01 08:57:51;;;;;;;7.57;3.90;;;13.10;99.90;;;;;;5046174;28;20021;-44
2022/01/01 09:00:17;;;;;;;8.90;4.07;;;13.10;99.90;;;;;;5047945;28;20044;-43
2022/01/01 09:02:43;;;;;;;8.75;4.38;;;13.10;99.90;;;;;;5046836;28;20456;-43
2022/01/01 09:05:09;;;;;;;8.98;4.18;;;13.10;99.90;;;;;;5048427;28;20045;-43
2022/01/01 09:07:35;;;;;;;6.07;3.70;;;13.20;99.90;;;;;;5050658;28;20112;-44
2022/01/01 09:10:03;;;;;;;6.55;4.45;;;13.10;99.90;;;;;;5050734;28;20107;-43
2022/01/01 09:12:29;;;;;;;9.88;4.38;;;13.20;99.90;;;;;;5049541;28;20523;-44
2022/01/01 09:14:55;;;;;;;7.72;3.92;;;13.20;99.90;;;;;;5051068;28;20033;-43
2022/01/01 09:17:21;;;;;;;7.45;3.97;;;13.20;99.90;;;;;;5050431;28;20041;-44
2022/01/01 09:19:47;;;;;;;7.68;4.00;;;13.30;99.90;;;;;;5049419;28;20037;-44
2022/01/01 09:22:13;;;;;;;6.38;3.65;;;13.30;99.90;;;;;;5050473;28;20013;-44
2022/01/01 09:24:38;;;;;;;6.18;4.18;;;13.40;99.90;;;;;;5050254;28;20056;-44
2022/01/01 09:27:04;;;;;;;9.25;4.50;;;13.40;99.90;;;;;;5049675;28;20043;-43
2022/01/01 09:29:30;;;;;;;8.65;4.18;;;13.40;99.90;;;;;;5049406;28;20092;-43
2022/01/01 09:31:55;;;;;;;7.03;4.38;;;13.50;99.90;;;;;;5049736;28;20049;-43
2022/01/01 09:34:21;;;;;;;7.03;4.07;;;13.50;99.90;;;;;;5049928;28;20024;-44
2022/01/01 09:36:47;;;;;;;5.32;3.28;;;13.50;99.90;;;;;;5049903;28;20484;-43
2022/01/01 09:39:13;;;;;;;7.15;3.92;;;13.60;99.90;;;;;;5049607;28;20059;-44
2022/01/01 09:41:41;;;;;;;8.82;4.68;;;13.60;99.90;;;;;;5049821;28;20035;-44
2022/01/01 09:44:15;;;;;;;7.55;3.63;;;13.70;99.90;;;;;;5049631;28;20025;-43
2022/01/01 09:46:46;;;;;;;8.48;3.75;;;13.60;99.90;;;;;;5049039;28;20037;-44
2022/01/01 09:49:13;;;;;;;7.82;3.75;;;13.70;99.90;;;;;;5050050;28;20059;-43
2022/01/01 09:51:40;;;;;;;6.13;3.30;;;13.70;99.90;;;;;;5049656;28;20488;-43
2022/01/01 09:54:06;;;;;;;5.10;3.72;;;13.60;99.90;;;;;;5048531;28;20423;-43
2022/01/01 09:56:32;;;;;;;4.57;3.00;;;13.70;99.90;;;;;;5050018;28;20406;-43
2022/01/01 09:59:01;;;;;;;6.97;3.58;;;13.70;99.90;;;;;;5049730;28;20432;-43
2022/01/01 10:01:29;;;;;;;6.65;3.70;;;13.70;99.90;;;;;;5048965;28;20369;-43
2022/01/01 10:03:59;;;;;;;6.22;3.53;;;13.70;99.90;;;;;;5049470;28;20036;-44
2022/01/01 10:06:29;;;;;;;5.60;3.40;;;13.70;99.90;;;;;;5049492;28;20047;-43
2022/01/01 10:08:59;;;;;;;8.63;3.72;;;13.70;99.90;;;;;;5048560;28;20033;-43
2022/01/01 10:11:27;;;;;;;8.52;3.88;;;13.70;99.90;;;;;;5046221;28;20620;-44
2022/01/01 10:13:53;;;;;;;6.07;3.92;;;13.80;99.90;;;;;;5049945;28;20040;-43
2022/01/01 10:16:19;;;;;;;6.25;3.55;;;13.70;99.90;;;;;;5048233;28;20025;-43
2022/01/01 10:18:47;;;;;;;9.18;3.55;;;13.70;99.90;;;;;;5049035;28;20040;-44
2022/01/01 10:21:15;;;;;;;7.07;3.95;;;13.80;99.90;;;;;;5049087;28;20029;-44
2022/01/01 10:23:43;;;;;;;5.45;3.05;;;13.80;99.90;;;;;;5049571;28;20033;-44
2022/01/01 10:28:54;;;;;;;8.23;4.53;;;13.80;99.90;;;;;;5028599;28;20388;-43
2022/01/01 10:31:20;;;;;;;8.40;4.32;;;13.80;99.90;;;;;;5045375;28;20033;-44
2022/01/01 10:33:46;;;;;;;8.68;4.57;;;13.90;99.90;;;;;;5049053;28;20567;-44
2022/01/01 10:36:14;;;;;;;6.75;3.80;;;13.90;99.90;;;;;;5048058;28;20036;-43
2022/01/01 10:38:39;;;;;;;5.32;3.53;;;13.90;99.90;;;;;;5049380;28;20025;-44
2022/01/01 10:41:08;;;;;;;4.85;3.58;;;13.90;99.90;;;;;;5048336;28;20025;-43
2022/01/01 10:43:38;;;;;;;6.07;4.18;;;14.00;99.90;;;;;;5048249;28;20021;-43
2022/01/01 10:46:07;;;;;;;9.13;4.03;;;14.00;99.90;;;;;;5048436;28;20593;-43
2022/01/01 10:51:07;;;;;;;9.60;5.30;;;14.00;99.90;;;;;;5047869;28;20041;-43
2022/01/01 10:53:33;;;;;;;6.63;4.03;;;14.00;99.90;;;;;;5048676;28;20027;-43
2022/01/01 10:56:04;;;;;;;7.05;4.50;;;14.00;99.90;;;;;;5048572;28;20066;-43
2022/01/01 10:58:34;;;;;;;6.05;4.47;;;14.10;99.90;;;;;;5047823;28;20103;-43
2022/01/01 11:01:03;;;;;;;5.82;4.32;;;14.10;99.90;;;;;;5048894;28;20021;-43
2022/01/01 11:03:34;;;;;;;9.65;5.28;;;14.10;99.90;;;;;;5047694;28;20098;-42
2022/01/01 11:06:08;;;;;;;7.07;5.13;;;14.10;99.90;;;;;;5047776;28;20067;-43
2022/01/01 11:08:35;;;;;;;7.15;4.55;;;14.10;99.90;;;;;;5048685;28;20039;-43
2022/01/01 11:11:02;;;;;;;6.93;4.38;;;14.10;99.90;;;;;;5047626;28;20032;-43
2022/01/01 11:13:29;;;;;;;8.55;4.90;;;14.10;99.90;;;;;;5044447;28;20111;-42
2022/01/01 11:15:54;;;;;;;7.43;4.72;;;14.10;99.90;;;;;;5048265;28;20032;-43
2022/01/01 11:18:22;;;;;;;11.30;5.75;;;14.20;99.90;;;;;;5047852;28;20032;-43
2022/01/01 11:20:49;;;;;;;8.48;4.50;;;14.20;99.90;;;;;;5048432;28;20028;-44
2022/01/01 11:23:14;;;;;;;8.85;5.25;;;14.20;99.90;;;;;;5048214;28;20033;-43
2022/01/01 11:25:41;;;;;;;9.35;5.03;;;14.20;99.90;;;;;;5047373;28;20793;-43
2022/01/01 11:28:10;;;;;;;8.02;4.57;;;14.20;99.90;;;;;;5047656;28;20044;-43
2022/01/01 11:30:41;;;;;;;6.43;4.00;;;14.20;99.90;;;;;;5047279;28;20082;-44
2022/01/01 11:33:10;;;;;;;5.85;4.10;;;14.20;99.90;;;;;;5047239;28;20036;-44
2022/01/01 11:35:43;;;;;;;5.03;4.07;;;14.20;99.90;;;;;;5047565;28;20487;-43
2022/01/01 11:38:14;;;;;;;4.82;3.33;;;14.20;99.90;;;;;;5047755;28;20025;-44
2022/01/01 11:40:45;;;;;;;4.55;3.60;;;14.30;99.90;;;;;;5047023;28;20033;-43
2022/01/01 11:43:31;;;;;;;5.20;3.92;;;14.30;99.90;;;;;;5048109;28;20068;-43
2022/01/01 11:45:57;;;;;;;7.72;4.13;;;14.30;99.90;;;;;;5046817;28;20549;-44
2022/01/01 11:48:26;;;;;;;6.05;3.92;;;14.30;99.90;;;;;;5047427;28;20346;-44
2022/01/01 11:50:52;;;;;;;6.63;4.07;;;14.40;99.90;;;;;;5047711;28;20025;-43
2022/01/01 11:53:28;;;;;;;6.53;3.95;;;14.40;99.90;;;;;;5047709;28;20017;-43
2022/01/01 11:56:04;;;;;;;7.32;4.50;;;14.40;99.90;;;;;;5047502;28;20035;-43
2022/01/01 11:58:48;;;;;;;6.10;4.65;;;14.40;99.90;;;;;;5047269;28;20388;-44
2022/01/01 12:01:19;;;;;;;7.78;4.47;;;14.40;99.90;;;;;;5047729;28;20021;-44
2022/01/01 12:03:52;;;;;;;6.65;4.30;;;14.40;99.90;;;;;;5047562;28;20017;-43
2022/01/01 12:06:22;;;;;;;5.75;4.15;;;14.30;99.90;;;;;;5047650;28;20436;-44
2022/01/01 12:08:49;;;;;;;7.40;3.92;;;14.40;99.90;;;;;;5046887;28;20021;-44
2022/01/01 12:11:29;;;;;;;5.47;4.20;;;14.30;99.90;;;;;;5048202;28;20017;-43
2022/01/01 12:13:56;;;;;;;5.47;3.75;;;14.30;99.90;;;;;;5046617;28;20468;-43
2022/01/01 12:16:22;;;;;;;7.00;4.13;;;14.30;99.90;;;;;;5047609;28;20057;-44
2022/01/01 12:18:48;;;;;;;5.50;3.60;;;14.30;99.90;;;;;;5047269;28;20029;-43
2022/01/01 12:21:20;;;;;;;4.90;3.90;;;14.40;99.90;;;;;;5047328;28;20025;-44
2022/01/01 12:23:48;;;;;;;6.05;3.50;;;14.40;99.90;;;;;;5047081;28;21252;-43
2022/01/01 12:26:14;;;;;;;6.10;3.50;;;14.40;99.90;;;;;;5047807;28;20037;-44
2022/01/01 12:28:43;;;;;;;8.68;4.32;;;14.50;99.90;;;;;;5047056;28;20025;-43
2022/01/01 12:31:21;;;;;;;5.85;3.78;;;14.50;99.90;;;;;;5046978;28;20100;-44
2022/01/01 12:33:50;;;;;;;4.35;3.08;;;14.50;99.90;;;;;;5046735;28;20481;-43
2022/01/01 12:36:18;;;;;;;4.22;2.95;;;14.60;99.90;;;;;;5043869;28;20021;-43
2022/01/01 12:38:52;;;;;;;5.20;3.83;;;14.60;99.90;;;;;;5048164;28;20049;-43
2022/01/01 12:41:23;;;;;;;6.70;3.92;;;14.60;99.90;;;;;;5050780;28;20120;-43
2022/01/01 12:43:50;;;;;;;5.28;3.72;;;14.70;99.90;;;;;;5050108;28;20059;-43